Time;durP1;ratioP1;P1;durP2;ratioP2;P2;SDS_P1;SDS_P2;PMS_P1;PMS_P2;Temp;Humidity;BMP_temperature;BMP_pressure;BME280_temperature;BME280_humidity;BME280_pressure;Samples;Min_cycle;Max_cycle;Signal;HPM_P1;HPM_P2
2022/06/26 00:01:37;;;;;;;3.85;1.85;;;;;;;19.86;55.67;99586.44;10421375;28;20627;-84
2022/06/26 00:06:39;;;;;;;4.00;1.73;;;;;;;19.88;55.34;99593.25;10424020;28;20067;-84
2022/06/26 00:11:41;;;;;;;3.90;1.67;;;;;;;19.84;54.93;99597.22;10426167;28;20055;-84
2022/06/26 00:16:43;;;;;;;3.30;1.70;;;;;;;19.88;53.94;99582.63;10425451;28;20059;-84
2022/06/26 00:21:45;;;;;;;4.63;1.48;;;;;;;19.93;53.14;99584.81;10448912;28;20053;-83
2022/06/26 00:26:46;;;;;;;2.72;1.40;;;;;;;19.95;53.24;99594.25;10450822;28;20502;-83
2022/06/26 00:31:48;;;;;;;4.40;1.38;;;;;;;19.90;54.77;99590.44;10424807;28;20063;-84
2022/06/26 00:36:50;;;;;;;4.03;1.55;;;;;;;19.68;56.20;99597.09;10422953;28;20441;-83
2022/06/26 00:41:53;;;;;;;9.98;1.80;;;;;;;19.42;57.53;99585.63;10424176;28;20057;-82
2022/06/26 00:47:01;;;;;;;3.13;1.90;;;;;;;19.13;59.99;99566.56;10440268;28;20052;-82
2022/06/26 00:52:03;;;;;;;6.28;1.85;;;;;;;18.81;60.67;99558.34;10423123;28;20156;-82
2022/06/26 00:57:05;;;;;;;4.68;1.70;;;;;;;18.59;61.07;99557.78;10441198;28;20053;-82
2022/06/26 01:02:07;;;;;;;5.07;2.22;;;;;;;18.53;62.99;99533.72;10422493;28;20395;-82
2022/06/26 01:07:11;;;;;;;4.57;2.00;;;;;;;18.65;63.20;99540.47;10440051;28;20681;-82
2022/06/26 01:12:13;;;;;;;5.68;2.20;;;;;;;18.81;62.74;99553.03;10421934;28;20045;-82
2022/06/26 01:17:14;;;;;;;6.53;2.10;;;;;;;18.49;63.64;99546.44;10421091;28;20080;-82
2022/06/26 01:22:16;;;;;;;4.13;2.00;;;;;;;18.30;63.95;99530.69;10421345;28;20585;-82
2022/06/26 01:27:18;;;;;;;6.22;2.40;;;;;;;18.22;64.29;99540.38;10422143;28;20056;-82
2022/06/26 01:32:20;;;;;;;5.28;2.72;;;;;;;18.27;64.20;99551.34;10420749;28;20056;-81
2022/06/26 01:37:24;;;;;;;5.45;2.33;;;;;;;18.19;65.62;99533.56;10418542;28;20060;-82
2022/06/26 01:42:26;;;;;;;4.60;2.42;;;;;;;18.20;64.96;99527.28;10418967;28;20041;-82
2022/06/26 01:47:27;;;;;;;6.47;2.38;;;;;;;18.26;64.90;99545.22;10420063;28;20274;-82
2022/06/26 01:52:29;;;;;;;7.50;2.30;;;;;;;18.28;65.46;99550.38;10417740;28;20051;-82
2022/06/26 01:57:31;;;;;;;5.20;2.35;;;;;;;18.35;65.10;99567.31;10436652;28;20616;-82
2022/06/26 02:02:33;;;;;;;4.53;2.33;;;;;;;18.38;65.73;99593.50;10419257;28;20134;-81
2022/06/26 02:07:35;;;;;;;6.13;2.95;;;;;;;18.44;65.65;99575.19;10425120;28;20056;-82
2022/06/26 02:17:58;;;;;;;8.93;3.15;;;;;;;18.43;65.83;99570.03;10442415;28;20056;-81
2022/06/26 02:22:59;;;;;;;6.20;2.55;;;;;;;18.29;65.63;99567.91;10423196;28;20098;-82
2022/06/26 02:28:02;;;;;;;5.60;2.20;;;;;;;18.26;65.32;99574.34;10424833;28;20107;-82
2022/06/26 02:33:04;;;;;;;8.38;2.50;;;;;;;18.23;65.65;99571.16;10397754;28;1200882;-82
2022/06/26 02:38:06;;;;;;;6.00;2.45;;;;;;;18.18;65.90;99576.84;10426288;28;20048;-82
2022/06/26 02:43:08;;;;;;;6.03;2.63;;;;;;;18.15;65.82;99576.31;10441855;28;20347;-82
2022/06/26 02:48:11;;;;;;;6.15;2.90;;;;;;;18.13;65.99;99580.94;10425289;28;20498;-82
2022/06/26 02:53:13;;;;;;;6.57;2.30;;;;;;;18.12;66.33;99580.09;10424114;28;20079;-81
2022/06/26 02:58:15;;;;;;;8.45;2.85;;;;;;;18.22;66.31;99583.56;10424891;28;20053;-81
2022/06/26 03:03:17;;;;;;;8.43;2.90;;;;;;;18.19;65.95;99593.56;10422571;28;20091;-81
2022/06/26 03:08:18;;;;;;;4.90;2.85;;;;;;;18.09;66.19;99587.50;10420828;28;20180;-82
2022/06/26 03:13:20;;;;;;;5.72;2.85;;;;;;;18.04;66.53;99601.16;10417632;28;20048;-83
2022/06/26 03:18:22;;;;;;;4.03;2.60;;;;;;;17.99;66.53;99597.31;10418198;28;20061;-82
2022/06/26 03:24:01;;;;;;;5.78;2.22;;;;;;;17.94;66.63;99603.03;10417552;28;20107;-82
2022/06/26 03:28:45;;;;;;;5.75;2.50;;;;;;;17.98;66.63;99600.91;10435934;28;20052;-82
2022/06/26 03:33:48;;;;;;;5.05;2.60;;;;;;;18.11;66.13;99614.66;10416358;28;20049;-82
2022/06/26 03:38:50;;;;;;;6.35;2.80;;;;;;;18.16;65.74;99620.31;10417490;28;20446;-82
2022/06/26 03:43:52;;;;;;;8.00;2.88;;;;;;;18.19;65.64;99631.50;10416741;28;20045;-82
2022/06/26 03:48:55;;;;;;;6.22;2.67;;;;;;;18.34;65.38;99634.50;10418327;28;20064;-82
2022/06/26 03:53:56;;;;;;;8.82;2.85;;;;;;;18.40;65.27;99644.50;10415841;28;20049;-82
2022/06/26 03:58:58;;;;;;;4.22;2.47;;;;;;;18.42;65.22;99653.13;10435249;28;20502;-82
2022/06/26 04:04:00;;;;;;;4.78;2.75;;;;;;;18.53;65.24;99652.91;10416189;28;20194;-82
2022/06/26 04:09:03;;;;;;;6.07;2.60;;;;;;;18.54;64.67;99662.53;10416941;28;20111;-82
2022/06/26 04:14:05;;;;;;;8.35;3.13;;;;;;;18.64;65.32;99660.66;10416307;28;20053;-82
2022/06/26 04:19:07;;;;;;;4.68;2.40;;;;;;;18.71;65.17;99680.25;10417166;28;20067;-82
2022/06/26 04:24:10;;;;;;;6.25;2.50;;;;;;;18.71;64.57;99684.75;10415638;28;20053;-82
2022/06/26 04:29:12;;;;;;;6.82;2.10;;;;;;;18.92;64.45;99683.47;10432850;28;20115;-81
2022/06/26 04:34:14;;;;;;;3.42;2.00;;;;;;;18.90;63.96;99680.13;10415437;28;20052;-82
2022/06/26 04:39:17;;;;;;;4.57;1.70;;;;;;;18.91;63.55;99680.97;10414655;28;20044;-82
2022/06/26 04:44:19;;;;;;;5.78;1.63;;;;;;;19.12;62.81;99678.88;10415381;28;20636;-82
2022/06/26 04:49:21;;;;;;;4.90;1.67;;;;;;;19.57;61.65;99681.41;10439547;28;20498;-82
2022/06/26 04:54:22;;;;;;;6.75;2.00;;;;;;;20.01;60.51;99675.09;10441525;28;20048;-82
2022/06/26 04:59:24;;;;;;;7.13;1.90;;;;;;;19.68;61.24;99689.97;10422311;28;20045;-82
2022/06/26 05:04:26;;;;;;;9.38;1.80;;;;;;;19.48;61.69;99691.94;10441584;28;20114;-82
2022/06/26 05:09:28;;;;;;;4.63;1.50;;;;;;;19.37;61.78;99689.56;10421586;28;20053;-82
2022/06/26 05:14:30;;;;;;;5.82;1.88;;;;;;;19.38;61.92;99677.94;10439435;28;20060;-82
2022/06/26 05:19:32;;;;;;;4.85;1.85;;;;;;;19.35;62.19;99674.78;10421774;28;20049;-82
2022/06/26 05:24:33;;;;;;;7.20;2.08;;;;;;;19.36;62.32;99676.44;10422956;28;20418;-82
2022/06/26 05:29:35;;;;;;;5.00;1.70;;;;;;;19.50;61.53;99678.56;10421533;28;20064;-82
2022/06/26 05:34:37;;;;;;;4.55;2.10;;;;;;;20.06;60.49;99686.91;10421729;28;20063;-82
2022/06/26 05:39:39;;;;;;;6.00;1.85;;;;;;;20.81;59.29;99682.56;10421401;28;20057;-81
2022/06/26 05:44:41;;;;;;;3.88;1.60;;;;;;;21.19;58.12;99684.66;10439260;28;20056;-82
2022/06/26 05:49:42;;;;;;;3.65;1.40;;;;;;;21.52;56.90;99690.81;10420428;28;20064;-82
2022/06/26 05:54:44;;;;;;;3.67;1.55;;;;;;;21.89;56.16;99705.25;10421887;28;20074;-83
2022/06/26 05:59:47;;;;;;;5.25;1.67;;;;;;;22.45;54.02;99696.28;10418604;28;20417;-83
2022/06/26 06:04:49;;;;;;;4.50;1.60;;;;;;;22.91;52.20;99704.41;10420755;28;20064;-82
2022/06/26 06:09:52;;;;;;;5.35;1.30;;;;;;;23.41;51.33;99712.81;10419357;28;20524;-83
2022/06/26 06:14:55;;;;;;;2.60;1.20;;;;;;;23.63;50.15;99738.63;10414787;28;20048;-83
2022/06/26 06:19:57;;;;;;;2.78;1.13;;;;;;;23.43;50.31;99748.16;10415574;28;20048;-84
2022/06/26 06:25:02;;;;;;;3.22;1.30;;;;;;;23.82;48.61;99751.47;10435632;28;20064;-83
2022/06/26 06:30:13;;;;;;;2.80;1.00;;;;;;;24.04;48.41;99747.13;10418123;28;20049;-84
2022/06/26 06:35:16;;;;;;;3.50;1.30;;;;;;;24.17;48.13;99764.19;10416651;28;20084;-83
2022/06/26 06:40:21;;;;;;;2.17;1.20;;;;;;;24.50;47.42;99756.66;10418010;28;20072;-83
2022/06/26 06:45:26;;;;;;;4.07;1.10;;;;;;;25.53;45.20;99763.47;10410356;28;20051;-83
2022/06/26 06:50:33;;;;;;;2.53;1.00;;;;;;;26.23;42.50;99759.97;10415026;28;20053;-82
2022/06/26 06:55:36;;;;;;;7.95;1.38;;;;;;;27.33;42.14;99766.91;10433931;28;20144;-83
2022/06/26 07:00:39;;;;;;;3.08;1.10;;;;;;;28.54;39.49;99770.06;10434128;28;20049;-83
2022/06/26 07:05:47;;;;;;;1.48;1.00;;;;;;;27.83;39.04;99776.31;10414143;28;20056;-83
2022/06/26 07:10:49;;;;;;;3.15;1.20;;;;;;;28.02;39.19;99784.38;10414059;28;20513;-83
2022/06/26 07:15:52;;;;;;;1.58;1.00;;;;;;;27.83;39.19;99779.03;10415446;28;20068;-83
2022/06/26 07:20:56;;;;;;;2.65;1.20;;;;;;;29.46;36.74;99773.22;10416869;28;20135;-83
2022/06/26 07:25:59;;;;;;;3.83;1.10;;;;;;;29.62;35.87;99771.88;10414848;28;20065;-82
2022/06/26 07:31:01;;;;;;;2.72;1.05;;;;;;;28.53;37.33;99781.84;10409261;28;20053;-83
2022/06/26 07:36:04;;;;;;;2.65;1.10;;;;;;;27.80;38.97;99784.78;10390920;28;20085;-84
2022/06/26 07:41:09;;;;;;;3.25;1.20;;;;;;;28.73;37.01;99788.00;10391608;28;20063;-83
2022/06/26 07:46:15;;;;;;;3.17;1.17;;;;;;;29.01;36.62;99799.31;10390399;28;20057;-84
2022/06/26 07:51:17;;;;;;;3.55;1.27;;;;;;;28.71;36.12;99805.41;10392381;28;20052;-84
2022/06/26 07:56:21;;;;;;;2.25;1.20;;;;;;;28.88;35.62;99804.78;10389378;28;21024;-84
2022/06/26 08:01:23;;;;;;;3.22;1.30;;;;;;;29.64;34.83;99794.03;10385910;28;20080;-83
2022/06/26 08:06:25;;;;;;;2.33;0.90;;;;;;;31.51;32.80;99776.31;10387807;28;20057;-83
2022/06/26 08:11:27;;;;;;;4.30;1.30;;;;;;;30.33;32.86;99785.81;10389194;28;20562;-83
2022/06/26 08:16:29;;;;;;;2.40;1.15;;;;;;;28.82;35.35;99784.06;10390687;28;20762;-83
2022/06/26 08:26:54;;;;;;;1.95;1.10;;;;;;;31.18;31.37;99758.69;10395856;28;20518;-82
2022/06/26 08:32:08;;;;;;;3.45;1.10;;;;;;;29.86;33.06;99789.94;10396216;28;20521;-83
2022/06/26 08:37:36;;;;;;;2.42;1.10;;;;;;;28.87;33.81;99786.94;10397618;28;20584;-82
2022/06/26 08:42:49;;;;;;;3.60;1.10;;;;;;;28.96;34.12;99790.25;10397068;28;20049;-82
2022/06/26 08:47:55;;;;;;;3.00;1.10;;;;;;;29.53;33.23;99774.00;10397344;28;20064;-83
2022/06/26 08:53:01;;;;;;;2.20;1.00;;;;;;;30.36;32.52;99783.50;10397001;28;20049;-83
2022/06/26 08:58:09;;;;;;;5.22;1.08;;;;;;;29.68;31.78;99785.28;10396809;28;20103;-83
2022/06/26 09:03:13;;;;;;;;;;;;;;;29.15;33.24;99783.94;10396321;28;20116;-83
2022/06/26 09:08:21;;;;;;;4.07;1.17;;;;;;;29.56;32.50;99792.41;10410847;28;19936;-83
2022/06/26 09:13:23;;;;;;;3.25;1.10;;;;;;;29.72;32.54;99799.16;10396194;28;20049;-83
2022/06/26 09:18:33;;;;;;;2.08;1.00;;;;;;;30.02;32.75;99796.69;10396443;28;20053;-83
2022/06/26 09:23:38;;;;;;;2.20;1.05;;;;;;;30.23;30.80;99801.69;10397981;28;20045;-84
2022/06/26 09:28:40;;;;;;;5.70;1.10;;;;;;;29.85;31.41;99790.97;10396085;28;20119;-83
2022/06/26 09:33:43;;;;;;;2.42;1.00;;;;;;;29.46;32.14;99802.03;10405661;28;20128;-84
2022/06/26 09:38:51;;;;;;;4.55;1.08;;;;;;;29.68;32.40;99790.66;10421908;28;20057;-83
2022/06/26 09:43:55;;;;;;;1.23;0.85;;;;;;;30.81;31.11;99791.34;10420370;28;20049;-83
2022/06/26 09:49:00;;;;;;;1.10;0.93;;;;;;;30.53;30.98;99781.06;10438939;28;20055;-83
2022/06/26 09:54:09;;;;;;;3.25;1.13;;;;;;;30.12;31.03;99776.25;10422804;28;20116;-84
2022/06/26 09:59:11;;;;;;;;;;;;;;;29.94;31.12;99780.78;10429928;28;20060;-83
2022/06/26 10:09:46;;;;;;;2.88;1.00;;;;;;;29.94;29.33;99787.00;10438727;28;20182;-84
2022/06/26 10:14:53;;;;;;;2.50;0.90;;;;;;;29.58;30.98;99779.56;10419533;28;20733;-84
2022/06/26 10:20:12;;;;;;;3.63;1.00;;;;;;;29.89;31.26;99781.38;10420612;28;20049;-83
2022/06/26 10:25:25;;;;;;;6.63;1.33;;;;;;;29.42;31.69;99788.16;10419235;28;20513;-84
2022/06/26 10:30:29;;;;;;;2.47;1.13;;;;;;;28.88;32.34;99791.31;10418736;28;20053;-84
2022/06/26 10:35:44;;;;;;;2.42;1.00;;;;;;;29.28;31.56;99793.78;10394398;28;20057;-84
2022/06/26 10:46:11;;;;;;;2.05;1.08;;;;;;;29.13;32.46;99802.19;10395371;28;20053;-84
2022/06/26 10:51:23;;;;;;;1.42;0.88;;;;;;;28.24;33.28;99803.81;10393432;28;20526;-84
2022/06/26 10:56:29;;;;;;;3.35;1.20;;;;;;;28.49;34.04;99801.31;10396268;28;20060;-83
2022/06/26 11:01:32;;;;;;;3.70;1.10;;;;;;;28.47;34.80;99804.22;10395111;28;20083;-84
2022/06/26 11:06:39;;;;;;;4.13;1.10;;;;;;;28.13;35.31;99807.97;10393860;28;20061;-85
2022/06/26 11:11:52;;;;;;;1.80;1.13;;;;;;;27.74;36.55;99821.38;10392679;28;20049;-84
2022/06/26 11:17:05;;;;;;;2.38;1.15;;;;;;;27.18;37.16;99823.47;10411127;28;20057;-85
2022/06/26 11:22:12;;;;;;;4.10;1.20;;;;;;;27.25;37.22;99813.59;10394316;28;20782;-85
2022/06/26 11:27:14;;;;;;;2.45;1.25;;;;;;;27.68;36.60;99802.53;10393961;28;20047;-85
2022/06/26 11:32:23;;;;;;;3.65;1.20;;;;;;;28.16;35.32;99810.22;10408056;28;20045;-83
2022/06/26 11:37:35;;;;;;;;;;;;;;;28.07;35.86;99816.03;10377695;28;20506;-85
2022/06/26 11:42:39;;;;;;;2.45;1.25;;;;;;;28.37;35.96;99825.34;10386515;28;19968;-84
2022/06/26 11:47:45;;;;;;;2.17;1.23;;;;;;;28.47;35.15;99808.78;10376665;28;20053;-83
2022/06/26 11:52:57;;;;;;;5.50;1.50;;;;;;;27.87;36.35;99815.19;10393471;28;20057;-85
2022/06/26 11:58:03;;;;;;;4.13;1.30;;;;;;;27.73;36.59;99813.53;10392536;28;20187;-85
2022/06/26 12:03:05;;;;;;;1.65;1.23;;;;;;;27.17;37.16;99818.31;10408090;28;20046;-85
2022/06/26 12:08:19;;;;;;;2.25;1.20;;;;;;;26.86;37.71;99816.06;10402399;28;20081;-86
2022/06/26 12:13:32;;;;;;;3.75;1.05;;;;;;;26.51;37.75;99811.72;10389612;28;20049;-84
2022/06/26 12:18:38;;;;;;;4.00;1.40;;;;;;;26.59;38.06;99814.25;10401570;28;20060;-85
2022/06/26 12:23:57;;;;;;;2.97;1.30;;;;;;;25.85;39.36;99829.91;10384572;28;20486;-85
2022/06/26 12:29:11;;;;;;;3.10;1.40;;;;;;;25.72;39.60;99816.41;10401193;28;20049;-86
2022/06/26 12:34:18;;;;;;;3.22;1.40;;;;;;;25.62;40.56;99821.25;10397294;28;20181;-86
2022/06/26 12:39:20;;;;;;;3.63;1.40;;;;;;;25.32;40.75;99822.34;10423687;28;20158;-88
2022/06/26 12:44:42;;;;;;;2.47;1.30;;;;;;;24.88;41.10;99835.78;10420614;28;20154;-85
2022/06/26 12:49:45;;;;;;;3.30;1.50;;;;;;;24.62;41.67;99813.16;10419565;28;20060;-86
2022/06/26 12:54:49;;;;;;;2.83;1.38;;;;;;;24.46;42.14;99822.19;10419757;28;20079;-85
2022/06/26 12:59:52;;;;;;;3.60;1.52;;;;;;;24.40;42.59;99816.75;10421367;28;20111;-84
2022/06/26 13:04:53;;;;;;;4.47;1.48;;;;;;;24.21;42.47;99818.09;10426711;28;20049;-84
2022/06/26 13:10:11;;;;;;;4.07;1.40;;;;;;;24.06;43.07;99814.56;10425368;28;20057;-85
2022/06/26 13:15:21;;;;;;;2.25;1.30;;;;;;;24.18;44.22;99818.47;10430671;28;20056;-85
2022/06/26 13:20:32;;;;;;;3.95;1.48;;;;;;;24.36;44.52;99810.13;10416715;28;20516;-84
2022/06/26 13:25:37;;;;;;;2.88;1.30;;;;;;;24.37;43.74;99803.78;10419254;28;20045;-85
2022/06/26 13:30:40;;;;;;;2.90;1.20;;;;;;;24.46;43.78;99798.16;10427952;28;20053;-84
2022/06/26 13:35:44;;;;;;;3.55;1.30;;;;;;;24.43;44.10;99795.00;10389084;28;20049;-85
2022/06/26 13:40:47;;;;;;;4.38;1.80;;;;;;;24.51;43.68;99792.25;10373500;28;20503;-84
2022/06/26 13:45:51;;;;;;;6.50;1.30;;;;;;;24.38;43.65;99798.22;10385718;28;20081;-84
2022/06/26 13:50:56;;;;;;;3.85;1.50;;;;;;;24.53;43.70;99796.38;10387816;28;20063;-85
2022/06/26 13:55:59;;;;;;;3.45;1.52;;;;;;;24.40;43.95;99796.19;10385089;28;20084;-84
2022/06/26 14:01:06;;;;;;;2.75;1.30;;;;;;;24.23;44.58;99808.06;10385536;28;20052;-84
2022/06/26 14:06:10;;;;;;;4.85;1.40;;;;;;;24.26;44.54;99800.53;10391040;28;20077;-84
2022/06/26 14:11:12;;;;;;;1.73;1.40;;;;;;;24.80;43.77;99808.31;10395145;28;20061;-84
2022/06/26 14:16:14;;;;;;;3.58;1.67;;;;;;;25.23;42.41;99788.66;10403949;28;20495;-84
2022/06/26 14:21:17;;;;;;;2.50;1.70;;;;;;;25.42;41.81;99777.38;10400850;28;20049;-84
2022/06/26 14:26:20;;;;;;;4.18;1.70;;;;;;;25.42;42.22;99761.31;10400192;28;20061;-84
2022/06/26 14:31:22;;;;;;;3.97;1.80;;;;;;;25.24;42.23;99762.75;10396656;28;20515;-85
2022/06/26 14:36:24;;;;;;;3.63;1.40;;;;;;;25.43;42.00;99768.31;10397467;28;20069;-85
2022/06/26 14:41:26;;;;;;;1.75;1.40;;;;;;;25.26;42.06;99763.38;10398008;28;20060;-84
2022/06/26 14:46:29;;;;;;;3.63;1.60;;;;;;;25.10;41.95;99770.63;10397796;28;20049;-84
2022/06/26 14:51:31;;;;;;;2.85;1.70;;;;;;;24.99;42.03;99768.44;10398084;28;20064;-85
2022/06/26 14:56:33;;;;;;;5.65;1.60;;;;;;;25.01;42.50;99761.06;10395582;28;20068;-84
2022/06/26 15:01:34;;;;;;;2.78;1.50;;;;;;;25.23;42.36;99761.91;10394889;28;20103;-83
2022/06/26 15:06:36;;;;;;;3.03;1.67;;;;;;;25.13;41.82;99769.41;10394597;28;20089;-84
2022/06/26 15:11:38;;;;;;;3.85;1.63;;;;;;;24.97;42.14;99761.59;10394627;28;20057;-83
2022/06/26 15:16:40;;;;;;;2.90;1.40;;;;;;;24.97;42.17;99753.59;10395574;28;20093;-83
2022/06/26 15:21:42;;;;;;;4.25;1.70;;;;;;;24.98;42.71;99748.03;10394880;28;20065;-83
2022/06/26 15:26:44;;;;;;;5.68;1.75;;;;;;;24.99;42.97;99743.53;10393957;28;20404;-84
2022/06/26 15:31:46;;;;;;;3.13;1.60;;;;;;;24.87;43.65;99735.16;10411229;28;20051;-83
2022/06/26 15:36:48;;;;;;;3.35;1.63;;;;;;;24.67;43.72;99720.69;10394447;28;20065;-83
2022/06/26 15:41:50;;;;;;;2.47;1.55;;;;;;;24.45;44.44;99734.97;10390765;28;20041;-83
2022/06/26 15:46:52;;;;;;;2.28;1.48;;;;;;;24.29;44.52;99749.38;10394955;28;20053;-83
2022/06/26 15:51:55;;;;;;;2.45;1.40;;;;;;;24.00;44.87;99751.97;10391712;28;20049;-83
2022/06/26 15:56:56;;;;;;;2.92;1.85;;;;;;;23.68;45.66;99754.94;10389188;28;20068;-83
2022/06/26 16:02:01;;;;;;;5.10;1.67;;;;;;;23.55;45.91;99746.72;10388549;28;20053;-84
2022/06/26 16:07:03;;;;;;;2.50;1.42;;;;;;;23.60;46.74;99746.16;10394351;28;20053;-84
2022/06/26 16:12:06;;;;;;;3.70;1.85;;;;;;;23.52;46.88;99751.56;10393966;28;20414;-84
2022/06/26 16:17:08;;;;;;;3.13;1.55;;;;;;;23.42;47.12;99747.31;10393098;28;20053;-84
2022/06/26 16:27:31;;;;;;;3.50;1.40;;;;;;;23.29;47.39;99732.84;10389150;28;20140;-84
2022/06/26 16:32:33;;;;;;;4.78;1.50;;;;;;;23.36;46.92;99734.66;10392638;28;20495;-83
2022/06/26 16:37:36;;;;;;;2.65;1.58;;;;;;;23.28;47.00;99725.88;10416530;28;20094;-83
2022/06/26 16:42:38;;;;;;;2.60;1.65;;;;;;;23.32;46.94;99725.34;10418672;28;20044;-83
2022/06/26 16:47:42;;;;;;;3.25;1.40;;;;;;;23.37;46.67;99712.28;10425475;28;20056;-84
2022/06/26 16:52:44;;;;;;;4.22;1.50;;;;;;;23.30;46.70;99697.16;10424509;28;20053;-83
2022/06/26 16:57:46;;;;;;;4.63;1.92;;;;;;;23.37;46.47;99690.13;10423411;28;20490;-84
2022/06/26 17:02:48;;;;;;;2.80;1.50;;;;;;;23.38;46.71;99675.75;10441563;28;20045;-83
2022/06/26 17:07:51;;;;;;;4.05;1.80;;;;;;;23.23;47.59;99680.19;10424630;28;20063;-83
2022/06/26 17:12:53;;;;;;;2.70;1.60;;;;;;;23.06;47.50;99694.66;10423015;28;20049;-84
2022/06/26 17:17:57;;;;;;;3.20;1.50;;;;;;;23.12;47.26;99707.31;10424014;28;20060;-83
2022/06/26 17:22:59;;;;;;;3.38;1.65;;;;;;;22.92;47.91;99706.94;10423050;28;20053;-83
2022/06/26 17:28:00;;;;;;;5.00;1.80;;;;;;;22.80;47.85;99700.31;10422435;28;20053;-83
2022/06/26 17:33:02;;;;;;;4.22;1.60;;;;;;;23.09;47.31;99700.47;10422237;28;20053;-83
2022/06/26 17:38:09;;;;;;;2.00;1.40;;;;;;;23.24;47.26;99696.03;10419729;28;20051;-84
2022/06/26 17:43:11;;;;;;;3.80;1.60;;;;;;;23.22;47.20;99692.72;10421281;28;20457;-83
2022/06/26 17:48:13;;;;;;;2.70;1.70;;;;;;;23.00;47.32;99679.38;10440524;28;20053;-83
2022/06/26 17:53:15;;;;;;;4.22;2.65;;;;;;;23.03;47.58;99685.19;10420643;28;20164;-83
2022/06/26 18:04:18;;;;;;;4.70;2.22;;;;;;;22.75;47.93;99677.84;10439086;28;20064;-83
2022/06/26 18:09:20;;;;;;;4.78;2.05;;;;;;;22.61;48.30;99672.25;10439706;28;20056;-83
2022/06/26 18:14:22;;;;;;;3.50;1.60;;;;;;;22.18;48.64;99651.44;10421919;28;20049;-83
2022/06/26 18:19:24;;;;;;;2.95;1.60;;;;;;;21.91;49.36;99657.16;10420758;28;20057;-83
2022/06/26 18:24:27;;;;;;;2.72;1.70;;;;;;;21.78;50.10;99660.34;10419816;28;20110;-83
2022/06/26 18:29:41;;;;;;;7.10;1.90;;;;;;;21.84;50.68;99669.50;10421234;28;20057;-83
2022/06/26 18:34:49;;;;;;;4.35;1.80;;;;;;;21.85;50.04;99669.31;10421426;28;20138;-83
2022/06/26 18:39:51;;;;;;;2.72;1.70;;;;;;;21.80;50.58;99671.66;10420328;28;20059;-84
2022/06/26 18:44:53;;;;;;;2.95;1.60;;;;;;;21.63;51.05;99686.00;10420521;28;20044;-84
2022/06/26 18:49:55;;;;;;;4.28;2.10;;;;;;;21.52;52.26;99693.47;10435966;28;20064;-84
2022/06/26 18:54:58;;;;;;;3.85;1.90;;;;;;;21.39;53.89;99687.84;10419944;28;20048;-83
2022/06/26 19:00:01;;;;;;;5.53;2.00;;;;;;;21.23;54.21;99683.31;10419365;28;20849;-83
2022/06/26 19:05:04;;;;;;;4.97;1.98;;;;;;;21.14;54.11;99667.50;10432723;28;20414;-83
2022/06/26 19:10:26;;;;;;;4.03;1.80;;;;;;;21.18;54.27;99636.91;10422106;28;20055;-84
2022/06/26 19:15:28;;;;;;;4.65;2.03;;;;;;;21.11;54.81;99646.56;10417849;28;20057;-83
2022/06/26 19:20:31;;;;;;;3.28;1.80;;;;;;;21.01;54.55;99663.50;10412575;28;20494;-83
2022/06/26 19:25:35;;;;;;;3.65;2.00;;;;;;;20.98;55.43;99655.88;10404326;28;20060;-83
2022/06/26 19:30:41;;;;;;;4.00;1.77;;;;;;;21.01;55.32;99647.53;10409188;28;20057;-83
2022/06/26 19:35:44;;;;;;;4.97;2.00;;;;;;;20.80;55.65;99657.00;10414635;28;20057;-83
2022/06/26 19:40:54;;;;;;;3.33;2.00;;;;;;;20.64;56.13;99660.44;10415104;28;20426;-84
2022/06/26 19:45:57;;;;;;;4.88;1.85;;;;;;;20.52;55.63;99656.38;10432803;28;20049;-83
2022/06/26 19:51:01;;;;;;;5.45;1.90;;;;;;;20.28;56.16;99681.03;10415186;28;20154;-84
2022/06/26 19:56:07;;;;;;;4.25;2.10;;;;;;;20.09;56.32;99707.00;10415274;28;20517;-84
2022/06/26 20:01:17;;;;;;;5.78;2.20;;;;;;;19.81;57.18;99700.13;10433050;28;20598;-83
2022/06/26 20:06:26;;;;;;;5.20;2.97;;;;;;;19.83;57.30;99696.38;10426902;28;20065;-82
2022/06/26 20:11:30;;;;;;;6.60;2.20;;;;;;;19.73;57.43;99708.88;10411848;28;20045;-83
2022/06/26 20:16:41;;;;;;;3.92;2.30;;;;;;;19.63;58.05;99709.97;10413384;28;20049;-84
2022/06/26 20:21:46;;;;;;;4.13;2.13;;;;;;;19.60;57.99;99681.09;10423380;28;20092;-83
2022/06/26 20:26:48;;;;;;;5.30;2.28;;;;;;;19.59;57.60;99656.38;10410555;28;20049;-83
2022/06/26 20:31:55;;;;;;;7.60;2.42;;;;;;;19.60;57.75;99646.63;10419661;28;20053;-82
2022/06/26 20:37:02;;;;;;;5.63;2.38;;;;;;;19.49;58.06;99639.75;10418525;28;20075;-84
2022/06/26 20:42:05;;;;;;;6.00;2.13;;;;;;;19.46;57.67;99640.88;10418534;28;20048;-83
2022/06/26 20:47:11;;;;;;;4.65;2.30;;;;;;;19.38;57.77;99640.81;10422238;28;20067;-81
2022/06/26 20:52:19;;;;;;;4.60;2.40;;;;;;;19.29;58.65;99647.06;10420544;28;20063;-81
2022/06/26 20:57:25;;;;;;;5.55;2.55;;;;;;;19.31;58.76;99666.31;10416523;28;20249;-82
2022/06/26 21:02:29;;;;;;;8.77;2.58;;;;;;;19.26;59.08;99673.03;10421652;28;20961;-81
2022/06/26 21:07:33;;;;;;;3.65;2.30;;;;;;;19.22;59.15;99675.16;10439615;28;20053;-82
2022/06/26 21:12:43;;;;;;;3.85;2.30;;;;;;;19.08;59.76;99681.00;10421719;28;20560;-82
2022/06/26 21:17:50;;;;;;;4.65;2.63;;;;;;;19.15;59.69;99681.22;10437785;28;20057;-83
2022/06/26 21:22:56;;;;;;;5.25;2.40;;;;;;;19.20;59.13;99697.50;10419486;28;20056;-84
2022/06/26 21:28:20;;;;;;;5.63;2.70;;;;;;;19.13;59.72;99686.69;10433959;28;20508;-85
2022/06/26 21:33:29;;;;;;;4.65;2.50;;;;;;;19.16;59.58;99720.84;10419659;28;20159;-84
2022/06/26 21:38:56;;;;;;;5.13;2.50;;;;;;;19.11;59.57;99748.78;10416166;28;20044;-84
2022/06/26 21:44:16;;;;;;;4.03;2.40;;;;;;;19.10;59.48;99745.31;10420244;28;20049;-85
2022/06/26 21:49:23;;;;;;;6.00;2.60;;;;;;;19.11;59.99;99730.25;10419622;28;20060;-84
2022/06/26 21:54:44;;;;;;;8.30;2.55;;;;;;;19.20;61.53;99731.97;10418803;28;20486;-82
2022/06/26 22:00:25;;;;;;;5.43;2.95;;;;;;;19.26;61.11;99700.38;10436798;28;20843;-85
2022/06/26 22:05:31;;;;;;;6.47;2.90;;;;;;;19.22;61.50;99666.38;10417895;28;20053;-82
2022/06/26 22:10:36;;;;;;;8.73;3.28;;;;;;;19.09;61.60;99664.13;10419083;28;20131;-82
2022/06/26 22:15:40;;;;;;;6.05;3.10;;;;;;;19.05;62.78;99683.97;10416366;28;20049;-83
2022/06/26 22:20:42;;;;;;;4.50;2.50;;;;;;;19.01;62.89;99698.44;10418448;28;20057;-83
2022/06/26 22:31:16;;;;;;;10.35;2.97;;;;;;;18.76;63.78;99723.03;10435091;28;20107;-83
2022/06/26 22:36:19;;;;;;;7.47;3.25;;;;;;;18.65;64.54;99723.22;10407549;28;21109;-83
2022/06/26 22:41:21;;;;;;;12.57;4.40;;;;;;;18.57;65.31;99769.00;10391517;28;20057;-82
2022/06/26 22:46:24;;;;;;;7.07;2.70;;;;;;;18.32;65.63;99774.13;10393008;28;20044;-82
2022/06/26 22:51:27;;;;;;;7.25;3.03;;;;;;;18.34;65.70;99762.41;10393637;28;20337;-82
2022/06/26 22:56:31;;;;;;;5.70;2.80;;;;;;;18.34;66.00;99762.41;10394036;28;20405;-83
2022/06/26 23:01:38;;;;;;;8.88;2.90;;;;;;;18.17;66.87;99780.81;10394966;28;20140;-82
2022/06/26 23:06:40;;;;;;;10.35;2.97;;;;;;;18.17;66.37;99818.72;10392077;28;20049;-83
2022/06/26 23:11:43;;;;;;;5.38;2.75;;;;;;;17.97;66.96;99805.66;10396367;28;20045;-82
2022/06/26 23:16:46;;;;;;;8.57;2.78;;;;;;;18.04;66.96;99746.72;10395643;28;20163;-82
2022/06/26 23:21:48;;;;;;;13.60;3.60;;;;;;;17.93;67.48;99751.34;10392914;28;20053;-82
2022/06/26 23:26:51;;;;;;;7.30;2.60;;;;;;;17.90;67.32;99730.47;10391254;28;21154;-82
2022/06/26 23:31:53;;;;;;;8.43;3.35;;;;;;;17.87;67.35;99736.06;10393752;28;20053;-82
2022/06/26 23:36:55;;;;;;;5.47;2.53;;;;;;;17.89;67.58;99787.00;10426298;28;20067;-82
2022/06/26 23:41:57;;;;;;;12.90;2.70;;;;;;;17.82;67.65;99771.69;10436310;28;20048;-82
2022/06/26 23:46:59;;;;;;;7.88;2.40;;;;;;;17.85;67.70;99742.31;10417620;28;20135;-82
2022/06/26 23:52:01;;;;;;;8.07;2.38;;;;;;;17.87;67.46;99746.63;10417845;28;20052;-82
2022/06/26 23:57:03;;;;;;;11.45;3.58;;;;;;;17.84;67.58;99753.03;10417022;28;20103;-82
